Buckcreek, Iowa
Current Conditions -  °F | °C
As of 4:55 PM on Friday 28 Nov 2014 (Local Time) from KOLZ Reporting Station
Overcast Overcast  
Wind Chill: 20°   Ceiling: 12000
Heat Index: 28°   Visibility: 10mi
Dew Point: 25°   Wind: 9mph
Humidity: 86%   Direction: 140°SE
Pressure: 29.84"   Gusts: NA
Location:  42.8281°N, 92.1565°W
Report Text: KOLZ 282255Z AUTO 14008KT 10SM OVC120 M02/M04 A2984 RMK AO2
Loading
Personal Weather Stations






























Interactive Weather Map New forecast layout! Learn more

10-Day Weather Forecast

Advertisements
Track Severe Weather on mobile